Terminal Aerodrome Forecast
Issued by NWS

Home | Current Version | Previous Version | Graphics & Text | Print | Product List | Glossary On
Versions: 1 2 3 4 5 6 7 8 9 10 11 12 13 14 15 16
000
FTUS43 KMPX 091720
TAFRNH
TAF
KRNH 091720Z 0918/1018 33009KT P6SM SCT025 BKN250
     FM092200 27006KT P6SM SCT035 BKN120
     FM100000 22006KT P6SM SCT035 OVC100
     FM100900 26005KT P6SM SCT025 BKN080
     FM101100 30010KT P6SM BKN025=

USA.gov is the U.S. government's official web portal to all federal, state and local government web resources and services.